Terminal Aerodrome Forecast
Issued by NWS Birmingham, AL

Home | Current Version | Previous Version | Text Only | Print | Product List | Glossary On
Versions: 1 2 3 4 5 6 7 8 9 10 11 12
000
FTUS44 KBMX 281728
TAFBHM
TAF
KBHM 281728Z 2818/2918 11005KT P6SM SCT100
     FM290000 14006KT P6SM BKN080
     FM291200 14006KT P6SM VCTS BKN060CB=

USA.gov is the U.S. government's official web portal to all federal, state and local government web resources and services.